ARG1975 SAZB-SUMU
Flight info
| Callsign | ARG1975 |
|---|---|
| Flight time | N/A |
| Altitude | 37000 |
| Route | PULAS UW22 EZE UM424 TOKAM |
| Aircraft | B738/M-SDE2E3FGHIRWXY/LB1 |
Departure
| Time | 2026-05-08 22:20 |
|---|---|
| Airport | Comandante Espora Airport (SAZB) |
Arrival
| Time | N/A |
|---|---|
| Airport | Carrasco General Cesáreo L. Berisso International Airport (SUMU) |
| Time | Latitude | Longitude | Altitude | Speed | Heading |
|---|---|---|---|---|---|
| 2026-05-08 21:49 | -38.71643 | -62.16306 | 256 ft | 0 kts | 276° |
| 2026-05-08 22:12 | -38.71644 | -62.16286 | 256 ft | 4 kts | 264° |
| 2026-05-08 22:12 | -38.71636 | -62.16256 | 256 ft | 4 kts | 228° |
| 2026-05-08 22:12 | -38.71615 | -62.16237 | 256 ft | 4 kts | 197° |
| 2026-05-08 22:13 | -38.71596 | -62.16231 | 256 ft | 0 kts | 188° |
| 2026-05-08 22:15 | -38.71599 | -62.16232 | 256 ft | 3 kts | 188° |
| 2026-05-08 22:16 | -38.71627 | -62.16235 | 256 ft | 4 kts | 173° |
| 2026-05-08 22:16 | -38.71646 | -62.16185 | 256 ft | 8 kts | 93° |
| 2026-05-08 22:16 | -38.71650 | -62.16118 | 256 ft | 7 kts | 94° |
| 2026-05-08 22:16 | -38.71645 | -62.16054 | 256 ft | 7 kts | 67° |
| 2026-05-08 22:17 | -38.71616 | -62.15990 | 256 ft | 10 kts | 59° |
| 2026-05-08 22:17 | -38.71585 | -62.15921 | 256 ft | 5 kts | 60° |
| 2026-05-08 22:17 | -38.71584 | -62.15919 | 256 ft | 0 kts | 60° |
| 2026-05-08 22:18 | -38.71583 | -62.15918 | 256 ft | 1 kts | 60° |
| 2026-05-08 22:18 | -38.71564 | -62.15865 | 257 ft | 9 kts | 72° |
| 2026-05-08 22:19 | -38.71581 | -62.15785 | 257 ft | 10 kts | 133° |
| 2026-05-08 22:19 | -38.71645 | -62.15745 | 257 ft | 10 kts | 163° |
| 2026-05-08 22:19 | -38.71657 | -62.15740 | 257 ft | 16 kts | 164° |
| 2026-05-08 22:19 | -38.72045 | -62.15602 | 255 ft | 97 kts | 164° |
| 2026-05-08 22:20 | -38.72904 | -62.15278 | 304 ft | 157 kts | 170° |
| 2026-05-08 22:20 | -38.73960 | -62.14881 | 1251 ft | 138 kts | 168° |
| 2026-05-08 22:20 | -38.74613 | -62.14529 | 2982 ft | 75 kts | 166° |
| 2026-05-08 22:20 | -38.75178 | -62.14170 | 3143 ft | 127 kts | 157° |
| 2026-05-08 22:21 | -38.76096 | -62.13529 | 3357 ft | 166 kts | 152° |
| 2026-05-08 22:21 | -38.76827 | -62.12148 | 3551 ft | 218 kts | 113° |
| 2026-05-08 22:21 | -38.76833 | -62.10077 | 4076 ft | 251 kts | 86° |
| 2026-05-08 22:21 | -38.75963 | -62.07933 | 4405 ft | 291 kts | 58° |